Price, Canada
Current Conditions -  °F | °C
As of 1:00 AM on Wednesday 28 Jan 2015 (Local Time) from CYYY Reporting Station
Light Snow Light Snow  
Wind Chill: -11°   Ceiling: 400
Heat Index: 10°   Visibility: 1.5mi
Dew Point:   Wind: 26mph
Humidity: 79%   Direction: 30°NNE
Pressure: 30"   Gusts: 35mph
Location:  48.6°N, 68.13°W
Report Text: CYYY 280600Z 03023G30KT 1 1/2SM R06/4500VP6000FT/D -SN BLSN VV004 M12/M15 A3000 RMK BLSN8 /S02/ SLP165
Loading
Personal Weather Stations






























Interactive Weather Map New forecast layout! Learn more

10-Day Weather Forecast

Advertisements
Track Severe Weather on mobile